sensor_id;sensor_type;location;lat;lon;timestamp;temperature;humidity
23703;DHT22;12030;50.376;8.762;2023-09-18T00:00:47;17.70;99.90
23703;DHT22;12030;50.376;8.762;2023-09-18T00:03:17;17.60;99.90
23703;DHT22;12030;50.376;8.762;2023-09-18T00:05:45;17.60;99.90
23703;DHT22;12030;50.376;8.762;2023-09-18T00:08:10;17.60;99.90
23703;DHT22;12030;50.376;8.762;2023-09-18T00:10:36;17.60;99.90
23703;DHT22;12030;50.376;8.762;2023-09-18T00:13:02;17.60;99.90
23703;DHT22;12030;50.376;8.762;2023-09-18T00:15:27;17.50;99.90
23703;DHT22;12030;50.376;8.762;2023-09-18T00:17:53;17.50;99.90
23703;DHT22;12030;50.376;8.762;2023-09-18T00:20:19;17.40;99.90
23703;DHT22;12030;50.376;8.762;2023-09-18T00:22:45;17.40;99.90
23703;DHT22;12030;50.376;8.762;2023-09-18T00:25:11;17.40;99.90
23703;DHT22;12030;50.376;8.762;2023-09-18T00:27:36;17.40;99.90
23703;DHT22;12030;50.376;8.762;2023-09-18T00:30:04;17.30;99.90
23703;DHT22;12030;50.376;8.762;2023-09-18T00:32:30;17.30;99.90
23703;DHT22;12030;50.376;8.762;2023-09-18T00:34:55;17.20;99.90
23703;DHT22;12030;50.376;8.762;2023-09-18T00:37:21;17.20;99.90
23703;DHT22;12030;50.376;8.762;2023-09-18T00:39:47;17.20;99.90
23703;DHT22;12030;50.376;8.762;2023-09-18T00:42:12;17.10;99.90
23703;DHT22;12030;50.376;8.762;2023-09-18T00:44:39;17.00;99.90
23703;DHT22;12030;50.376;8.762;2023-09-18T00:47:07;17.00;99.90
23703;DHT22;12030;50.376;8.762;2023-09-18T00:49:33;17.00;99.90
23703;DHT22;12030;50.376;8.762;2023-09-18T00:51:59;17.00;99.90
23703;DHT22;12030;50.376;8.762;2023-09-18T00:54:25;17.00;99.90
23703;DHT22;12030;50.376;8.762;2023-09-18T00:56:52;17.00;99.90
23703;DHT22;12030;50.376;8.762;2023-09-18T00:59:20;17.00;99.90
23703;DHT22;12030;50.376;8.762;2023-09-18T01:01:46;16.90;99.90
23703;DHT22;12030;50.376;8.762;2023-09-18T01:04:18;17.00;99.90
23703;DHT22;12030;50.376;8.762;2023-09-18T01:06:44;17.00;99.90
23703;DHT22;12030;50.376;8.762;2023-09-18T01:09:10;17.00;99.90
23703;DHT22;12030;50.376;8.762;2023-09-18T01:11:51;16.90;99.90
23703;DHT22;12030;50.376;8.762;2023-09-18T01:14:26;17.00;99.90
23703;DHT22;12030;50.376;8.762;2023-09-18T01:16:57;16.90;99.90
23703;DHT22;12030;50.376;8.762;2023-09-18T01:19:43;16.90;99.90
23703;DHT22;12030;50.376;8.762;2023-09-18T01:22:13;16.90;99.90
23703;DHT22;12030;50.376;8.762;2023-09-18T01:24:39;16.90;99.90
23703;DHT22;12030;50.376;8.762;2023-09-18T01:27:09;16.90;99.90
23703;DHT22;12030;50.376;8.762;2023-09-18T01:29:35;16.90;99.90
23703;DHT22;12030;50.376;8.762;2023-09-18T01:32:01;16.90;99.90
23703;DHT22;12030;50.376;8.762;2023-09-18T01:34:29;16.80;99.90
23703;DHT22;12030;50.376;8.762;2023-09-18T01:36:57;16.80;99.90
23703;DHT22;12030;50.376;8.762;2023-09-18T01:39:24;16.80;99.90
23703;DHT22;12030;50.376;8.762;2023-09-18T01:41:52;16.80;99.90
23703;DHT22;12030;50.376;8.762;2023-09-18T01:44:18;16.80;99.90
23703;DHT22;12030;50.376;8.762;2023-09-18T01:46:44;16.70;99.90
23703;DHT22;12030;50.376;8.762;2023-09-18T01:49:10;16.70;99.90
23703;DHT22;12030;50.376;8.762;2023-09-18T01:51:35;16.70;99.90
23703;DHT22;12030;50.376;8.762;2023-09-18T01:54:01;16.70;99.90
23703;DHT22;12030;50.376;8.762;2023-09-18T01:56:27;16.60;99.90
23703;DHT22;12030;50.376;8.762;2023-09-18T01:58:52;16.60;99.90
23703;DHT22;12030;50.376;8.762;2023-09-18T02:01:18;16.50;99.90
23703;DHT22;12030;50.376;8.762;2023-09-18T02:03:44;16.50;99.90
23703;DHT22;12030;50.376;8.762;2023-09-18T02:06:11;16.60;99.90
23703;DHT22;12030;50.376;8.762;2023-09-18T02:08:36;16.60;99.90
23703;DHT22;12030;50.376;8.762;2023-09-18T02:11:02;16.60;99.90
23703;DHT22;12030;50.376;8.762;2023-09-18T02:13:28;16.60;99.90
23703;DHT22;12030;50.376;8.762;2023-09-18T02:15:54;16.70;99.90
23703;DHT22;12030;50.376;8.762;2023-09-18T02:18:20;16.70;99.90
23703;DHT22;12030;50.376;8.762;2023-09-18T02:20:46;16.70;99.90
23703;DHT22;12030;50.376;8.762;2023-09-18T02:23:14;16.80;99.90
23703;DHT22;12030;50.376;8.762;2023-09-18T02:25:40;16.80;99.90
23703;DHT22;12030;50.376;8.762;2023-09-18T02:28:07;16.80;99.90
23703;DHT22;12030;50.376;8.762;2023-09-18T02:30:32;16.90;99.90
23703;DHT22;12030;50.376;8.762;2023-09-18T02:32:58;16.90;99.90
23703;DHT22;12030;50.376;8.762;2023-09-18T02:35:25;17.00;99.90
23703;DHT22;12030;50.376;8.762;2023-09-18T02:37:50;17.00;99.90
23703;DHT22;12030;50.376;8.762;2023-09-18T02:40:16;17.00;99.90
23703;DHT22;12030;50.376;8.762;2023-09-18T02:42:41;17.00;99.90
23703;DHT22;12030;50.376;8.762;2023-09-18T02:45:07;16.90;99.90
23703;DHT22;12030;50.376;8.762;2023-09-18T02:47:35;17.00;99.90
23703;DHT22;12030;50.376;8.762;2023-09-18T02:50:03;17.10;99.90
23703;DHT22;12030;50.376;8.762;2023-09-18T02:52:29;17.30;99.90
23703;DHT22;12030;50.376;8.762;2023-09-18T02:54:55;17.30;99.90
23703;DHT22;12030;50.376;8.762;2023-09-18T02:57:20;17.30;99.90
23703;DHT22;12030;50.376;8.762;2023-09-18T02:59:46;17.40;99.90
23703;DHT22;12030;50.376;8.762;2023-09-18T03:02:11;17.40;99.90
23703;DHT22;12030;50.376;8.762;2023-09-18T03:04:37;17.40;99.90
23703;DHT22;12030;50.376;8.762;2023-09-18T03:07:03;17.40;99.90
23703;DHT22;12030;50.376;8.762;2023-09-18T03:09:29;17.40;99.90
23703;DHT22;12030;50.376;8.762;2023-09-18T03:11:55;17.50;99.90
23703;DHT22;12030;50.376;8.762;2023-09-18T03:14:20;17.50;99.90
23703;DHT22;12030;50.376;8.762;2023-09-18T03:16:46;17.50;99.90
23703;DHT22;12030;50.376;8.762;2023-09-18T03:19:11;17.60;99.90
23703;DHT22;12030;50.376;8.762;2023-09-18T03:21:37;17.70;99.90
23703;DHT22;12030;50.376;8.762;2023-09-18T03:24:03;17.80;99.90
23703;DHT22;12030;50.376;8.762;2023-09-18T03:26:29;17.90;99.90
23703;DHT22;12030;50.376;8.762;2023-09-18T03:28:55;18.00;99.90
23703;DHT22;12030;50.376;8.762;2023-09-18T03:31:20;18.00;99.90
23703;DHT22;12030;50.376;8.762;2023-09-18T03:33:46;18.10;99.90
23703;DHT22;12030;50.376;8.762;2023-09-18T03:36:11;18.20;99.90
23703;DHT22;12030;50.376;8.762;2023-09-18T03:38:37;18.20;99.90
23703;DHT22;12030;50.376;8.762;2023-09-18T03:41:03;18.20;99.90
23703;DHT22;12030;50.376;8.762;2023-09-18T03:43:28;18.20;99.90
23703;DHT22;12030;50.376;8.762;2023-09-18T03:45:54;18.20;99.90
23703;DHT22;12030;50.376;8.762;2023-09-18T03:48:19;18.30;99.90
23703;DHT22;12030;50.376;8.762;2023-09-18T03:50:47;18.20;99.90
23703;DHT22;12030;50.376;8.762;2023-09-18T03:53:12;18.30;99.90
23703;DHT22;12030;50.376;8.762;2023-09-18T03:55:38;18.30;99.90
23703;DHT22;12030;50.376;8.762;2023-09-18T03:58:04;18.30;99.90
23703;DHT22;12030;50.376;8.762;2023-09-18T04:00:30;18.30;99.90
23703;DHT22;12030;50.376;8.762;2023-09-18T04:02:56;18.40;99.90
23703;DHT22;12030;50.376;8.762;2023-09-18T04:05:21;18.40;99.90
23703;DHT22;12030;50.376;8.762;2023-09-18T04:07:47;18.50;99.90
23703;DHT22;12030;50.376;8.762;2023-09-18T04:10:14;18.50;99.90
23703;DHT22;12030;50.376;8.762;2023-09-18T04:12:49;18.50;99.90
23703;DHT22;12030;50.376;8.762;2023-09-18T04:15:15;18.50;99.90
23703;DHT22;12030;50.376;8.762;2023-09-18T04:17:42;18.50;99.90
23703;DHT22;12030;50.376;8.762;2023-09-18T04:20:09;18.50;99.90
23703;DHT22;12030;50.376;8.762;2023-09-18T04:22:34;18.50;99.90
23703;DHT22;12030;50.376;8.762;2023-09-18T04:25:00;18.40;99.90
23703;DHT22;12030;50.376;8.762;2023-09-18T04:27:25;18.40;99.90
23703;DHT22;12030;50.376;8.762;2023-09-18T04:29:51;18.30;99.90
23703;DHT22;12030;50.376;8.762;2023-09-18T04:32:16;18.30;99.90
23703;DHT22;12030;50.376;8.762;2023-09-18T04:34:42;18.30;99.90
23703;DHT22;12030;50.376;8.762;2023-09-18T04:37:07;18.40;99.90
23703;DHT22;12030;50.376;8.762;2023-09-18T04:39:33;18.50;99.90
23703;DHT22;12030;50.376;8.762;2023-09-18T04:42:00;18.60;99.90
23703;DHT22;12030;50.376;8.762;2023-09-18T04:44:29;18.60;99.90
23703;DHT22;12030;50.376;8.762;2023-09-18T04:46:54;18.70;99.90
23703;DHT22;12030;50.376;8.762;2023-09-18T04:49:20;18.70;99.90
23703;DHT22;12030;50.376;8.762;2023-09-18T04:51:46;18.70;99.90
23703;DHT22;12030;50.376;8.762;2023-09-18T04:54:11;18.80;99.90
23703;DHT22;12030;50.376;8.762;2023-09-18T04:56:37;18.80;99.90
23703;DHT22;12030;50.376;8.762;2023-09-18T04:59:03;18.80;99.90
23703;DHT22;12030;50.376;8.762;2023-09-18T05:01:29;18.80;99.90
23703;DHT22;12030;50.376;8.762;2023-09-18T05:03:55;18.80;99.90
23703;DHT22;12030;50.376;8.762;2023-09-18T05:06:21;18.80;99.90
23703;DHT22;12030;50.376;8.762;2023-09-18T05:08:46;18.80;99.90
23703;DHT22;12030;50.376;8.762;2023-09-18T05:11:12;18.80;99.90
23703;DHT22;12030;50.376;8.762;2023-09-18T05:13:38;18.80;99.90
23703;DHT22;12030;50.376;8.762;2023-09-18T05:16:03;18.80;99.90
23703;DHT22;12030;50.376;8.762;2023-09-18T05:18:29;18.80;99.90
23703;DHT22;12030;50.376;8.762;2023-09-18T05:20:54;18.80;99.90
23703;DHT22;12030;50.376;8.762;2023-09-18T05:23:20;18.80;99.90
23703;DHT22;12030;50.376;8.762;2023-09-18T05:25:45;18.80;99.90
23703;DHT22;12030;50.376;8.762;2023-09-18T05:28:11;18.80;99.90
23703;DHT22;12030;50.376;8.762;2023-09-18T05:30:37;18.80;99.90
23703;DHT22;12030;50.376;8.762;2023-09-18T05:33:06;18.80;99.90
23703;DHT22;12030;50.376;8.762;2023-09-18T05:35:34;18.80;99.90
23703;DHT22;12030;50.376;8.762;2023-09-18T05:38:02;18.80;99.90
23703;DHT22;12030;50.376;8.762;2023-09-18T05:40:28;18.80;99.90
23703;DHT22;12030;50.376;8.762;2023-09-18T05:42:54;18.80;99.90
23703;DHT22;12030;50.376;8.762;2023-09-18T05:45:20;18.80;99.90
23703;DHT22;12030;50.376;8.762;2023-09-18T05:47:46;18.80;99.90
23703;DHT22;12030;50.376;8.762;2023-09-18T05:50:12;18.80;99.90
23703;DHT22;12030;50.376;8.762;2023-09-18T05:52:40;18.80;99.90
23703;DHT22;12030;50.376;8.762;2023-09-18T05:55:06;18.90;99.90
23703;DHT22;12030;50.376;8.762;2023-09-18T05:57:35;18.90;99.90
23703;DHT22;12030;50.376;8.762;2023-09-18T06:00:01;18.90;99.90
23703;DHT22;12030;50.376;8.762;2023-09-18T06:02:26;18.90;99.90
23703;DHT22;12030;50.376;8.762;2023-09-18T06:04:59;18.90;99.90
23703;DHT22;12030;50.376;8.762;2023-09-18T06:07:28;18.90;99.90
23703;DHT22;12030;50.376;8.762;2023-09-18T06:09:54;18.90;99.90
23703;DHT22;12030;50.376;8.762;2023-09-18T06:12:20;19.00;99.90
23703;DHT22;12030;50.376;8.762;2023-09-18T06:14:46;19.00;99.90
23703;DHT22;12030;50.376;8.762;2023-09-18T06:17:14;19.10;99.90
23703;DHT22;12030;50.376;8.762;2023-09-18T06:19:43;19.10;99.90
23703;DHT22;12030;50.376;8.762;2023-09-18T06:22:09;19.10;99.90
23703;DHT22;12030;50.376;8.762;2023-09-18T06:24:35;19.20;99.90
23703;DHT22;12030;50.376;8.762;2023-09-18T06:27:00;19.20;99.90
23703;DHT22;12030;50.376;8.762;2023-09-18T06:29:26;19.20;99.90
23703;DHT22;12030;50.376;8.762;2023-09-18T06:31:52;19.20;99.90
23703;DHT22;12030;50.376;8.762;2023-09-18T06:34:17;19.20;99.90
23703;DHT22;12030;50.376;8.762;2023-09-18T06:36:43;19.20;99.90
23703;DHT22;12030;50.376;8.762;2023-09-18T06:39:08;19.20;99.90
23703;DHT22;12030;50.376;8.762;2023-09-18T06:41:34;19.20;99.90
23703;DHT22;12030;50.376;8.762;2023-09-18T06:44:00;19.20;99.90
23703;DHT22;12030;50.376;8.762;2023-09-18T06:46:29;19.20;99.90
23703;DHT22;12030;50.376;8.762;2023-09-18T06:48:55;19.20;99.90
23703;DHT22;12030;50.376;8.762;2023-09-18T06:51:21;19.20;99.90
23703;DHT22;12030;50.376;8.762;2023-09-18T06:53:47;19.20;99.90
23703;DHT22;12030;50.376;8.762;2023-09-18T06:56:12;19.20;99.90
23703;DHT22;12030;50.376;8.762;2023-09-18T06:58:38;19.20;99.90
23703;DHT22;12030;50.376;8.762;2023-09-18T07:01:04;19.20;99.90
23703;DHT22;12030;50.376;8.762;2023-09-18T07:03:32;19.20;99.90
23703;DHT22;12030;50.376;8.762;2023-09-18T07:06:00;19.30;99.90
23703;DHT22;12030;50.376;8.762;2023-09-18T07:08:25;19.30;99.90
23703;DHT22;12030;50.376;8.762;2023-09-18T07:10:51;19.30;99.90
23703;DHT22;12030;50.376;8.762;2023-09-18T07:13:16;19.40;99.90
23703;DHT22;12030;50.376;8.762;2023-09-18T07:15:42;19.40;99.90
23703;DHT22;12030;50.376;8.762;2023-09-18T07:18:09;19.40;99.90
23703;DHT22;12030;50.376;8.762;2023-09-18T07:20:45;19.40;99.90
23703;DHT22;12030;50.376;8.762;2023-09-18T07:23:11;19.50;99.90
23703;DHT22;12030;50.376;8.762;2023-09-18T07:25:36;19.50;99.90
23703;DHT22;12030;50.376;8.762;2023-09-18T07:28:06;19.60;99.90
23703;DHT22;12030;50.376;8.762;2023-09-18T07:30:33;19.60;99.90
23703;DHT22;12030;50.376;8.762;2023-09-18T07:32:58;19.60;99.90
23703;DHT22;12030;50.376;8.762;2023-09-18T07:35:25;19.70;99.90
23703;DHT22;12030;50.376;8.762;2023-09-18T07:37:51;19.70;99.90
23703;DHT22;12030;50.376;8.762;2023-09-18T07:40:16;19.70;99.90
23703;DHT22;12030;50.376;8.762;2023-09-18T07:42:42;19.80;99.90
23703;DHT22;12030;50.376;8.762;2023-09-18T07:45:11;19.80;99.90
23703;DHT22;12030;50.376;8.762;2023-09-18T07:47:36;19.80;99.90
23703;DHT22;12030;50.376;8.762;2023-09-18T07:50:02;19.80;99.90
23703;DHT22;12030;50.376;8.762;2023-09-18T07:52:28;19.90;99.90
23703;DHT22;12030;50.376;8.762;2023-09-18T07:54:55;19.90;99.90
23703;DHT22;12030;50.376;8.762;2023-09-18T07:57:20;20.00;99.90
23703;DHT22;12030;50.376;8.762;2023-09-18T07:59:48;20.00;99.90
23703;DHT22;12030;50.376;8.762;2023-09-18T08:02:13;20.00;99.90
23703;DHT22;12030;50.376;8.762;2023-09-18T08:04:39;20.00;99.90
23703;DHT22;12030;50.376;8.762;2023-09-18T08:07:05;20.00;99.90
23703;DHT22;12030;50.376;8.762;2023-09-18T08:09:32;20.10;99.90
23703;DHT22;12030;50.376;8.762;2023-09-18T08:12:04;20.10;99.90
23703;DHT22;12030;50.376;8.762;2023-09-18T08:14:30;20.20;99.90
23703;DHT22;12030;50.376;8.762;2023-09-18T08:16:57;20.20;99.90
23703;DHT22;12030;50.376;8.762;2023-09-18T08:19:23;20.40;99.90
23703;DHT22;12030;50.376;8.762;2023-09-18T08:21:52;20.40;99.90
23703;DHT22;12030;50.376;8.762;2023-09-18T08:24:18;20.40;99.90
23703;DHT22;12030;50.376;8.762;2023-09-18T08:26:43;20.40;99.90
23703;DHT22;12030;50.376;8.762;2023-09-18T08:29:09;20.40;99.90
23703;DHT22;12030;50.376;8.762;2023-09-18T08:31:34;20.50;99.90
23703;DHT22;12030;50.376;8.762;2023-09-18T08:34:00;20.60;99.90
23703;DHT22;12030;50.376;8.762;2023-09-18T08:36:25;20.70;99.90
23703;DHT22;12030;50.376;8.762;2023-09-18T08:38:51;20.70;99.90
23703;DHT22;12030;50.376;8.762;2023-09-18T08:41:18;20.80;99.90
23703;DHT22;12030;50.376;8.762;2023-09-18T08:43:46;20.90;99.90
23703;DHT22;12030;50.376;8.762;2023-09-18T08:46:14;21.00;99.90
23703;DHT22;12030;50.376;8.762;2023-09-18T08:48:40;21.20;99.90
23703;DHT22;12030;50.376;8.762;2023-09-18T08:51:07;21.20;99.90
23703;DHT22;12030;50.376;8.762;2023-09-18T08:53:35;21.20;99.90
23703;DHT22;12030;50.376;8.762;2023-09-18T08:56:02;21.30;99.90
23703;DHT22;12030;50.376;8.762;2023-09-18T08:58:34;21.30;99.90
23703;DHT22;12030;50.376;8.762;2023-09-18T09:01:02;21.30;99.90
23703;DHT22;12030;50.376;8.762;2023-09-18T09:03:29;21.30;99.90
23703;DHT22;12030;50.376;8.762;2023-09-18T09:05:55;21.40;99.90
23703;DHT22;12030;50.376;8.762;2023-09-18T09:08:21;21.40;99.90
23703;DHT22;12030;50.376;8.762;2023-09-18T09:10:47;21.40;99.90
23703;DHT22;12030;50.376;8.762;2023-09-18T09:13:14;21.40;99.90
23703;DHT22;12030;50.376;8.762;2023-09-18T09:15:46;21.30;99.90
23703;DHT22;12030;50.376;8.762;2023-09-18T09:18:13;21.30;99.90
23703;DHT22;12030;50.376;8.762;2023-09-18T09:20:40;21.40;99.90
23703;DHT22;12030;50.376;8.762;2023-09-18T09:23:09;21.50;99.90
23703;DHT22;12030;50.376;8.762;2023-09-18T09:25:35;21.50;99.90
23703;DHT22;12030;50.376;8.762;2023-09-18T09:28:03;21.40;99.90
23703;DHT22;12030;50.376;8.762;2023-09-18T09:30:30;21.40;99.90
23703;DHT22;12030;50.376;8.762;2023-09-18T09:32:57;21.30;99.90
23703;DHT22;12030;50.376;8.762;2023-09-18T09:35:25;21.30;99.90
23703;DHT22;12030;50.376;8.762;2023-09-18T09:37:58;21.30;99.90
23703;DHT22;12030;50.376;8.762;2023-09-18T09:40:25;21.40;99.90
23703;DHT22;12030;50.376;8.762;2023-09-18T09:42:53;21.40;99.90
23703;DHT22;12030;50.376;8.762;2023-09-18T09:45:23;21.40;99.90
23703;DHT22;12030;50.376;8.762;2023-09-18T09:47:53;21.40;99.90
23703;DHT22;12030;50.376;8.762;2023-09-18T09:50:19;21.50;99.90
23703;DHT22;12030;50.376;8.762;2023-09-18T09:52:49;21.50;99.90
23703;DHT22;12030;50.376;8.762;2023-09-18T09:58:03;21.60;99.90
23703;DHT22;12030;50.376;8.762;2023-09-18T10:00:52;21.60;99.90
23703;DHT22;12030;50.376;8.762;2023-09-18T10:03:19;21.70;99.90
23703;DHT22;12030;50.376;8.762;2023-09-18T10:05:47;21.70;99.90
23703;DHT22;12030;50.376;8.762;2023-09-18T10:08:17;21.60;99.90
23703;DHT22;12030;50.376;8.762;2023-09-18T10:10:46;21.60;99.90
23703;DHT22;12030;50.376;8.762;2023-09-18T10:15:44;21.60;99.90
23703;DHT22;12030;50.376;8.762;2023-09-18T10:18:22;21.60;99.90
23703;DHT22;12030;50.376;8.762;2023-09-18T10:20:51;21.60;99.90
23703;DHT22;12030;50.376;8.762;2023-09-18T10:23:32;21.60;99.90
23703;DHT22;12030;50.376;8.762;2023-09-18T10:26:00;21.60;99.90
23703;DHT22;12030;50.376;8.762;2023-09-18T10:28:29;21.60;99.90
23703;DHT22;12030;50.376;8.762;2023-09-18T10:30:57;21.60;99.90
23703;DHT22;12030;50.376;8.762;2023-09-18T10:33:25;21.70;99.90
23703;DHT22;12030;50.376;8.762;2023-09-18T10:35:53;21.70;99.90
23703;DHT22;12030;50.376;8.762;2023-09-18T10:38:18;21.70;99.90
23703;DHT22;12030;50.376;8.762;2023-09-18T10:40:46;21.70;99.90
23703;DHT22;12030;50.376;8.762;2023-09-18T10:43:15;21.70;99.90
23703;DHT22;12030;50.376;8.762;2023-09-18T10:45:42;21.70;99.90
23703;DHT22;12030;50.376;8.762;2023-09-18T10:48:09;21.80;99.90
23703;DHT22;12030;50.376;8.762;2023-09-18T10:50:36;21.70;99.90
23703;DHT22;12030;50.376;8.762;2023-09-18T10:53:02;21.80;99.90
23703;DHT22;12030;50.376;8.762;2023-09-18T10:55:28;21.80;99.90
23703;DHT22;12030;50.376;8.762;2023-09-18T10:57:58;21.80;99.90
23703;DHT22;12030;50.376;8.762;2023-09-18T11:00:25;21.90;99.90
23703;DHT22;12030;50.376;8.762;2023-09-18T11:02:52;22.00;99.90
23703;DHT22;12030;50.376;8.762;2023-09-18T11:05:28;22.00;99.90
23703;DHT22;12030;50.376;8.762;2023-09-18T11:11:09;22.10;99.90
23703;DHT22;12030;50.376;8.762;2023-09-18T11:13:41;22.30;99.90
23703;DHT22;12030;50.376;8.762;2023-09-18T11:18:53;22.30;99.90
23703;DHT22;12030;50.376;8.762;2023-09-18T11:21:24;22.40;99.90
23703;DHT22;12030;50.376;8.762;2023-09-18T11:23:58;22.50;99.90
23703;DHT22;12030;50.376;8.762;2023-09-18T11:26:29;22.60;99.90
23703;DHT22;12030;50.376;8.762;2023-09-18T11:28:55;22.50;99.90
23703;DHT22;12030;50.376;8.762;2023-09-18T11:31:41;22.60;99.90
23703;DHT22;12030;50.376;8.762;2023-09-18T11:36:47;22.60;99.90
23703;DHT22;12030;50.376;8.762;2023-09-18T11:39:13;22.70;99.90
23703;DHT22;12030;50.376;8.762;2023-09-18T11:41:39;22.70;99.90
23703;DHT22;12030;50.376;8.762;2023-09-18T11:46:41;22.80;99.90
23703;DHT22;12030;50.376;8.762;2023-09-18T11:49:13;22.90;99.90
23703;DHT22;12030;50.376;8.762;2023-09-18T11:51:40;22.70;99.90
23703;DHT22;12030;50.376;8.762;2023-09-18T11:54:07;22.70;99.90
23703;DHT22;12030;50.376;8.762;2023-09-18T11:56:33;22.80;99.90
23703;DHT22;12030;50.376;8.762;2023-09-18T11:58:59;22.80;99.90
23703;DHT22;12030;50.376;8.762;2023-09-18T12:01:30;22.80;99.90
23703;DHT22;12030;50.376;8.762;2023-09-18T12:04:03;22.70;99.90
23703;DHT22;12030;50.376;8.762;2023-09-18T12:06:38;22.70;99.90
23703;DHT22;12030;50.376;8.762;2023-09-18T12:09:05;22.70;99.90
23703;DHT22;12030;50.376;8.762;2023-09-18T12:11:32;22.70;99.90
23703;DHT22;12030;50.376;8.762;2023-09-18T12:14:01;22.80;99.90
23703;DHT22;12030;50.376;8.762;2023-09-18T12:16:27;22.80;99.90
23703;DHT22;12030;50.376;8.762;2023-09-18T12:18:53;22.70;99.90
23703;DHT22;12030;50.376;8.762;2023-09-18T12:21:19;22.70;99.90
23703;DHT22;12030;50.376;8.762;2023-09-18T12:23:45;22.80;99.90
23703;DHT22;12030;50.376;8.762;2023-09-18T12:26:12;22.80;99.90
23703;DHT22;12030;50.376;8.762;2023-09-18T12:28:40;22.80;99.90
23703;DHT22;12030;50.376;8.762;2023-09-18T12:31:06;22.80;99.90
23703;DHT22;12030;50.376;8.762;2023-09-18T12:33:39;22.90;99.90
23703;DHT22;12030;50.376;8.762;2023-09-18T12:36:06;23.00;99.90
23703;DHT22;12030;50.376;8.762;2023-09-18T12:38:32;22.90;99.90
23703;DHT22;12030;50.376;8.762;2023-09-18T12:40:59;23.00;99.90
23703;DHT22;12030;50.376;8.762;2023-09-18T12:43:36;23.00;99.90
23703;DHT22;12030;50.376;8.762;2023-09-18T12:46:04;23.00;99.90
23703;DHT22;12030;50.376;8.762;2023-09-18T12:48:30;23.20;99.90
23703;DHT22;12030;50.376;8.762;2023-09-18T12:51:01;23.30;99.90
23703;DHT22;12030;50.376;8.762;2023-09-18T12:53:27;23.30;99.90
23703;DHT22;12030;50.376;8.762;2023-09-18T12:55:52;23.40;99.90
23703;DHT22;12030;50.376;8.762;2023-09-18T12:58:19;23.60;99.90
23703;DHT22;12030;50.376;8.762;2023-09-18T13:00:49;23.90;99.90
23703;DHT22;12030;50.376;8.762;2023-09-18T13:03:15;23.90;99.90
23703;DHT22;12030;50.376;8.762;2023-09-18T13:05:41;24.00;99.90
23703;DHT22;12030;50.376;8.762;2023-09-18T13:08:06;23.90;99.90
23703;DHT22;12030;50.376;8.762;2023-09-18T13:10:44;23.90;99.90
23703;DHT22;12030;50.376;8.762;2023-09-18T13:13:20;24.30;99.90
23703;DHT22;12030;50.376;8.762;2023-09-18T13:15:47;24.50;99.90
23703;DHT22;12030;50.376;8.762;2023-09-18T13:18:15;24.90;99.90
23703;DHT22;12030;50.376;8.762;2023-09-18T13:20:41;25.20;99.90
23703;DHT22;12030;50.376;8.762;2023-09-18T13:23:07;25.30;99.90
23703;DHT22;12030;50.376;8.762;2023-09-18T13:28:00;25.10;99.90
23703;DHT22;12030;50.376;8.762;2023-09-18T13:30:26;24.90;99.90
23703;DHT22;12030;50.376;8.762;2023-09-18T13:33:10;24.70;99.90
23703;DHT22;12030;50.376;8.762;2023-09-18T13:35:39;24.80;99.90
23703;DHT22;12030;50.376;8.762;2023-09-18T13:38:05;24.90;99.90
23703;DHT22;12030;50.376;8.762;2023-09-18T13:40:32;25.00;99.90
23703;DHT22;12030;50.376;8.762;2023-09-18T13:42:59;25.30;99.90
23703;DHT22;12030;50.376;8.762;2023-09-18T13:45:24;25.40;99.90
23703;DHT22;12030;50.376;8.762;2023-09-18T13:47:50;25.40;99.90
23703;DHT22;12030;50.376;8.762;2023-09-18T13:50:15;25.50;99.90
23703;DHT22;12030;50.376;8.762;2023-09-18T13:52:41;25.40;99.90
23703;DHT22;12030;50.376;8.762;2023-09-18T13:55:07;25.10;99.90
23703;DHT22;12030;50.376;8.762;2023-09-18T13:57:35;24.80;99.90
23703;DHT22;12030;50.376;8.762;2023-09-18T14:00:02;24.50;99.90
23703;DHT22;12030;50.376;8.762;2023-09-18T14:02:32;24.40;99.90
23703;DHT22;12030;50.376;8.762;2023-09-18T14:04:58;24.30;99.90
23703;DHT22;12030;50.376;8.762;2023-09-18T14:07:24;24.40;99.90
23703;DHT22;12030;50.376;8.762;2023-09-18T14:09:49;24.40;99.90
23703;DHT22;12030;50.376;8.762;2023-09-18T14:12:15;24.60;99.90
23703;DHT22;12030;50.376;8.762;2023-09-18T14:14:44;24.60;99.90
23703;DHT22;12030;50.376;8.762;2023-09-18T14:17:10;24.60;99.90
23703;DHT22;12030;50.376;8.762;2023-09-18T14:19:36;24.60;99.90
23703;DHT22;12030;50.376;8.762;2023-09-18T14:22:08;24.40;99.90
23703;DHT22;12030;50.376;8.762;2023-09-18T14:24:34;24.50;99.90
23703;DHT22;12030;50.376;8.762;2023-09-18T14:27:03;24.30;99.90
23703;DHT22;12030;50.376;8.762;2023-09-18T14:29:28;24.40;99.90
23703;DHT22;12030;50.376;8.762;2023-09-18T14:31:56;24.70;99.90
23703;DHT22;12030;50.376;8.762;2023-09-18T14:34:22;24.80;99.90
23703;DHT22;12030;50.376;8.762;2023-09-18T14:36:47;24.70;99.90
23703;DHT22;12030;50.376;8.762;2023-09-18T14:39:13;24.60;99.90
23703;DHT22;12030;50.376;8.762;2023-09-18T14:41:38;24.60;99.90
23703;DHT22;12030;50.376;8.762;2023-09-18T14:44:05;24.80;99.90
23703;DHT22;12030;50.376;8.762;2023-09-18T14:46:31;25.10;99.90
23703;DHT22;12030;50.376;8.762;2023-09-18T14:49:00;25.30;99.90
23703;DHT22;12030;50.376;8.762;2023-09-18T14:51:27;25.30;99.90
23703;DHT22;12030;50.376;8.762;2023-09-18T14:53:54;25.40;99.90
23703;DHT22;12030;50.376;8.762;2023-09-18T14:56:20;25.50;99.90
23703;DHT22;12030;50.376;8.762;2023-09-18T14:58:45;25.80;99.90
23703;DHT22;12030;50.376;8.762;2023-09-18T15:01:11;25.80;99.90
23703;DHT22;12030;50.376;8.762;2023-09-18T15:03:37;25.30;99.90
23703;DHT22;12030;50.376;8.762;2023-09-18T15:06:03;25.10;99.90
23703;DHT22;12030;50.376;8.762;2023-09-18T15:08:28;24.90;99.90
23703;DHT22;12030;50.376;8.762;2023-09-18T15:10:54;24.80;99.90
23703;DHT22;12030;50.376;8.762;2023-09-18T15:13:20;24.90;99.90
23703;DHT22;12030;50.376;8.762;2023-09-18T15:15:46;24.70;99.90
23703;DHT22;12030;50.376;8.762;2023-09-18T15:18:12;24.40;99.90
23703;DHT22;12030;50.376;8.762;2023-09-18T15:20:37;24.20;99.90
23703;DHT22;12030;50.376;8.762;2023-09-18T15:23:05;24.00;99.90
23703;DHT22;12030;50.376;8.762;2023-09-18T15:25:51;24.20;99.90
23703;DHT22;12030;50.376;8.762;2023-09-18T15:28:19;24.70;99.90
23703;DHT22;12030;50.376;8.762;2023-09-18T15:30:46;25.00;99.90
23703;DHT22;12030;50.376;8.762;2023-09-18T15:33:12;25.30;99.90
23703;DHT22;12030;50.376;8.762;2023-09-18T15:35:38;25.40;99.90
23703;DHT22;12030;50.376;8.762;2023-09-18T15:38:04;25.60;99.90
23703;DHT22;12030;50.376;8.762;2023-09-18T15:40:32;25.60;99.90
23703;DHT22;12030;50.376;8.762;2023-09-18T15:42:57;25.50;99.90
23703;DHT22;12030;50.376;8.762;2023-09-18T15:45:23;25.60;99.90
23703;DHT22;12030;50.376;8.762;2023-09-18T15:47:49;25.60;99.90